Warner, Illinois
Current Conditions -  °F | °C
As of 5:52 AM on Wednesday 28 Jan 2015 (Local Time) from KMLI Reporting Station
Scattered Clouds Scattered Clouds  
Wind Chill: 21°   Ceiling: Unl
Heat Index: 28°   Visibility: 8mi
Dew Point: 22°   Wind: 7mph
Humidity: 78%   Direction: 150°SSE
Pressure: 30.2"   Gusts: NA
Location:  41.3669°N, 90.3966°W
Report Text: KMLI 281152Z 15006KT 8SM SCT013 M02/M06 A3020 RMK AO2 SLP235 T10221056 11017 21028 56007
Loading
Personal Weather Stations






























Interactive Weather Map New forecast layout! Learn more

10-Day Weather Forecast

Advertisements
Track Severe Weather on mobile